Time;durP1;ratioP1;P1;durP2;ratioP2;P2;SDS_P1;SDS_P2;PMS_P1;PMS_P2;Temp;Humidity;BMP_temperature;BMP_pressure;BME280_temperature;BME280_humidity;BME280_pressure;Samples;Min_cycle;Max_cycle;Signal;HPM_P1;HPM_P2
2023/03/19 00:00:08;;;;;;;72.53;40.40;;;;;;;-143.84;94.30;44041.91;5068687;28;20473;-81
2023/03/19 00:02:35;;;;;;;68.73;36.87;;;;;;;-143.84;94.65;44038.09;5070097;28;20443;-81
2023/03/19 00:05:05;;;;;;;70.93;38.00;;;;;;;-143.84;94.32;44030.50;5072365;28;20494;-81
2023/03/19 00:07:33;;;;;;;69.27;35.80;;;;;;;-143.84;94.34;44022.88;5071686;28;20449;-81
2023/03/19 00:10:00;;;;;;;64.00;37.00;;;;;;;-143.84;93.42;44005.75;5071985;28;20480;-81
2023/03/19 00:12:27;;;;;;;67.93;38.30;;;;;;;-143.84;93.66;43994.31;5071946;28;20425;-81
2023/03/19 00:14:54;;;;;;;67.47;37.37;;;;;;;-143.84;93.74;44007.66;5071701;28;21328;-81
2023/03/19 00:17:21;;;;;;;67.13;37.87;;;;;;;-143.84;93.61;43990.53;5072116;28;20433;-81
2023/03/19 00:19:49;;;;;;;68.73;38.97;;;;;;;-143.84;93.43;43986.72;5070016;28;20480;-82
2023/03/19 00:22:18;;;;;;;72.83;36.77;;;;;;;-143.84;93.10;43988.63;5069865;28;20437;-81
2023/03/19 00:24:45;;;;;;;70.20;36.40;;;;;;;-143.84;93.05;43984.81;5071876;28;20430;-81
2023/03/19 00:27:12;;;;;;;70.57;39.20;;;;;;;-143.84;93.40;43988.63;5071151;28;20444;-81
2023/03/19 00:29:40;;;;;;;73.57;38.57;;;;;;;-143.84;93.37;43984.81;5068817;28;20421;-80
2023/03/19 00:32:07;;;;;;;62.20;35.70;;;;;;;-143.84;93.07;43998.13;5071174;28;20429;-80
2023/03/19 00:34:34;;;;;;;65.83;35.10;;;;;;;-143.84;92.67;43988.63;5072282;28;21262;-80
2023/03/19 00:37:01;;;;;;;70.80;38.37;;;;;;;-143.84;92.84;43967.69;5072503;28;20433;-81
2023/03/19 00:39:31;;;;;;;65.33;37.47;;;;;;;-143.84;92.33;43965.78;5069448;28;20444;-80
2023/03/19 00:41:58;;;;;;;64.00;38.07;;;;;;;-143.84;92.30;43952.44;5072088;28;20510;-80
2023/03/19 00:44:25;;;;;;;64.80;36.13;;;;;;;-143.84;92.29;43935.31;5072072;28;20433;-80
2023/03/19 00:46:52;;;;;;;63.70;35.60;;;;;;;-143.84;91.92;43954.34;5072148;28;20429;-80
2023/03/19 00:49:20;;;;;;;66.67;35.47;;;;;;;-143.84;91.60;43933.41;5071643;28;20827;-80
2023/03/19 00:51:47;;;;;;;63.20;35.00;;;;;;;-143.84;92.00;43929.59;5072125;28;20436;-80
2023/03/19 00:54:14;;;;;;;58.97;34.27;;;;;;;-143.84;91.83;43925.78;5072212;28;20421;-80
2023/03/19 00:56:42;;;;;;;61.20;34.97;;;;;;;-143.84;91.14;43935.31;5072676;28;20441;-80
2023/03/19 00:59:10;;;;;;;61.10;34.63;;;;;;;-143.84;90.65;43912.47;5072380;28;20448;-81
2023/03/19 01:01:37;;;;;;;57.37;35.87;;;;;;;-143.84;90.67;43923.91;5072227;28;20961;-81
2023/03/19 01:04:04;;;;;;;64.73;35.60;;;;;;;-143.84;91.30;43901.06;5072357;28;20441;-81
2023/03/19 01:06:31;;;;;;;62.00;34.97;;;;;;;-143.84;90.80;43902.97;5072184;28;20425;-81
2023/03/19 01:08:58;;;;;;;58.47;35.63;;;;;;;-143.84;90.74;43901.06;5071413;28;20491;-81
2023/03/19 01:11:26;;;;;;;60.07;34.57;;;;;;;-143.84;91.03;43880.13;5071322;28;20502;-81
2023/03/19 01:13:54;;;;;;;54.77;33.47;;;;;;;-143.84;91.22;43908.66;5072373;28;21086;-81
2023/03/19 01:16:21;;;;;;;52.43;31.50;;;;;;;-143.84;91.00;43912.47;5072377;28;20447;-81
2023/03/19 01:18:49;;;;;;;55.40;31.53;;;;;;;-143.84;91.00;43914.38;5072331;28;20441;-81
2023/03/19 01:21:16;;;;;;;52.47;32.53;;;;;;;-143.84;91.09;43923.91;5071432;28;20468;-80
2023/03/19 01:23:43;;;;;;;58.30;36.20;;;;;;;-143.84;91.51;43927.69;5072539;28;20432;-81
2023/03/19 01:26:10;;;;;;;56.40;33.10;;;;;;;-143.84;90.78;43902.97;5072480;28;20503;-81
2023/03/19 01:28:37;;;;;;;54.47;33.17;;;;;;;-143.84;91.43;43916.28;5071524;28;20441;-80
2023/03/19 01:31:09;;;;;;;54.47;33.23;;;;;;;-143.84;91.06;43912.47;5072513;28;20760;-80
2023/03/19 01:33:36;;;;;;;63.70;33.53;;;;;;;-143.84;91.17;43899.16;5072142;28;20445;-80
2023/03/19 01:36:04;;;;;;;57.73;33.77;;;;;;;-143.84;90.80;43918.19;5072132;28;20856;-81
2023/03/19 01:38:32;;;;;;;56.50;34.07;;;;;;;-143.84;91.15;43904.84;5070533;28;20498;-81
2023/03/19 01:40:59;;;;;;;54.93;30.67;;;;;;;-143.84;90.92;43923.91;5069962;28;20473;-81
2023/03/19 01:43:28;;;;;;;51.80;31.20;;;;;;;-143.84;90.34;43918.19;5071476;28;20429;-81
2023/03/19 01:45:59;;;;;;;54.50;30.87;;;;;;;-143.84;90.61;43891.53;5071602;28;20491;-81
2023/03/19 01:48:37;;;;;;;59.10;33.77;;;;;;;-143.84;90.69;43906.75;5072017;28;20447;-81
2023/03/19 01:51:06;;;;;;;54.97;33.77;;;;;;;-143.84;90.76;43904.84;5072040;28;20441;-81
2023/03/19 01:53:36;;;;;;;55.70;31.47;;;;;;;-143.84;91.18;43904.84;5072286;28;20444;-81
2023/03/19 01:56:09;;;;;;;59.20;34.40;;;;;;;-143.84;91.24;43916.28;5069720;28;20445;-81
2023/03/19 01:58:37;;;;;;;49.83;30.83;;;;;;;-143.84;91.53;43933.41;5070011;28;20468;-80
2023/03/19 02:01:04;;;;;;;51.80;32.17;;;;;;;-143.84;91.43;43918.19;5072219;28;20993;-81
2023/03/19 02:03:34;;;;;;;58.13;31.80;;;;;;;-143.84;91.60;43902.97;5074869;28;20441;-81
2023/03/19 02:06:01;;;;;;;56.17;32.87;;;;;;;-143.84;91.92;43918.19;5075141;28;20436;-81
2023/03/19 02:08:30;;;;;;;59.73;34.23;;;;;;;-143.84;92.27;43946.75;5074832;28;20436;-81
2023/03/19 02:10:59;;;;;;;57.23;33.70;;;;;;;-143.84;92.28;43948.63;5074643;28;20933;-82
2023/03/19 02:13:27;;;;;;;55.40;31.60;;;;;;;-143.84;91.77;43944.84;5074353;28;20437;-82
2023/03/19 02:15:55;;;;;;;57.07;32.40;;;;;;;-143.84;91.78;43916.28;5074662;28;20904;-81
2023/03/19 02:18:24;;;;;;;60.30;34.57;;;;;;;-143.84;91.77;43929.59;5074611;28;20433;-81
2023/03/19 02:20:58;;;;;;;63.27;35.33;;;;;;;-143.84;91.97;43933.41;5074618;28;20475;-81
2023/03/19 02:23:34;;;;;;;65.53;33.40;;;;;;;-143.84;92.72;43948.63;5074959;28;20528;-81
2023/03/19 02:26:07;;;;;;;68.73;33.53;;;;;;;-143.84;92.30;43956.25;5074775;28;20516;-81
2023/03/19 02:28:37;;;;;;;60.10;33.40;;;;;;;-143.84;93.15;43956.25;5074446;28;20449;-81
2023/03/19 02:31:04;;;;;;;72.00;37.30;;;;;;;-143.84;92.74;43971.47;5074491;28;20950;-81
2023/03/19 02:33:32;;;;;;;65.27;33.37;;;;;;;-143.84;92.26;43963.88;5074746;28;20437;-80
2023/03/19 02:36:00;;;;;;;65.43;35.73;;;;;;;-143.84;92.03;43946.75;5074226;28;20421;-80
2023/03/19 02:38:28;;;;;;;61.27;33.80;;;;;;;-143.84;92.38;43954.34;5074543;28;21208;-81
2023/03/19 02:41:00;;;;;;;69.50;33.40;;;;;;;-143.84;92.44;43948.63;5074987;28;20473;-80
2023/03/19 02:43:29;;;;;;;64.07;31.80;;;;;;;-143.84;91.96;43948.63;5074233;28;20441;-75
2023/03/19 02:45:57;;;;;;;56.37;32.90;;;;;;;-143.84;91.96;43941.03;5073843;28;20452;-74
2023/03/19 02:48:25;;;;;;;64.90;34.67;;;;;;;-143.84;91.64;43914.38;5073384;28;20455;-74
2023/03/19 02:50:52;;;;;;;66.03;34.73;;;;;;;-143.84;92.02;43927.69;5073174;28;20441;-75
2023/03/19 02:53:20;;;;;;;68.10;35.40;;;;;;;-143.84;92.26;43933.41;5073570;28;20445;-74
2023/03/19 02:55:47;;;;;;;66.73;36.67;;;;;;;-143.84;92.33;43952.44;5072658;28;21330;-75
2023/03/19 02:58:14;;;;;;;59.20;32.53;;;;;;;-143.84;92.08;43954.34;5071814;28;20487;-75
2023/03/19 03:00:44;;;;;;;61.80;34.43;;;;;;;-143.84;91.92;43944.84;5072692;28;20541;-75
2023/03/19 03:03:11;;;;;;;63.20;33.30;;;;;;;-143.84;92.36;43925.78;5073083;28;20811;-75
2023/03/19 03:05:38;;;;;;;70.20;34.17;;;;;;;-143.84;91.86;43933.41;5073505;28;20833;-75
2023/03/19 03:08:06;;;;;;;63.53;32.37;;;;;;;-143.84;92.52;43927.69;5072925;28;20448;-74
2023/03/19 03:10:33;;;;;;;65.87;32.87;;;;;;;-143.84;92.20;43935.31;5072478;28;20484;-75
2023/03/19 03:13:01;;;;;;;53.77;30.80;;;;;;;-143.84;92.53;43961.97;5072517;28;20441;-75
2023/03/19 03:15:28;;;;;;;70.53;34.40;;;;;;;-143.84;91.89;43950.53;5070879;28;20429;-75
2023/03/19 03:17:57;;;;;;;56.37;30.70;;;;;;;-143.84;91.66;43935.31;5072667;28;20525;-75
2023/03/19 03:20:24;;;;;;;79.63;34.60;;;;;;;-143.84;91.43;43939.13;5072600;28;20449;-75
2023/03/19 03:22:52;;;;;;;57.90;31.17;;;;;;;-143.84;91.38;43912.47;5072744;28;20504;-75
2023/03/19 03:25:19;;;;;;;55.27;30.30;;;;;;;-143.84;90.95;43922.00;5072571;28;20445;-75
2023/03/19 03:27:47;;;;;;;52.77;30.13;;;;;;;-143.84;90.78;43923.91;5072780;28;20523;-75
2023/03/19 03:30:15;;;;;;;59.50;29.80;;;;;;;-143.84;90.67;43902.97;5072458;28;20481;-75
2023/03/19 03:32:42;;;;;;;45.97;29.30;;;;;;;-143.84;90.69;43904.84;5072268;28;21022;-75
2023/03/19 03:35:11;;;;;;;55.90;30.67;;;;;;;-143.84;90.96;43901.06;5072594;28;20468;-75
2023/03/19 03:37:38;;;;;;;55.07;28.97;;;;;;;-143.84;90.86;43916.28;5073027;28;20471;-75
2023/03/19 03:40:07;;;;;;;52.87;28.43;;;;;;;-143.84;90.20;43902.97;5072485;28;20790;-75
2023/03/19 03:42:36;;;;;;;47.37;27.57;;;;;;;-143.84;90.92;43902.97;5072271;28;20477;-75
2023/03/19 03:45:05;;;;;;;43.07;25.43;;;;;;;-143.84;90.50;43889.63;5072845;28;20437;-75
2023/03/19 03:47:32;;;;;;;50.30;28.27;;;;;;;-143.84;90.47;43893.44;5072392;28;20436;-75
2023/03/19 03:49:59;;;;;;;46.77;26.03;;;;;;;-143.84;90.75;43918.19;5069019;28;21108;-75
2023/03/19 03:52:30;;;;;;;45.30;26.00;;;;;;;-143.84;90.83;43880.13;5071485;28;20457;-75
2023/03/19 03:54:58;;;;;;;46.00;26.83;;;;;;;-143.84;90.21;43883.91;5071540;28;20475;-75
2023/03/19 03:57:26;;;;;;;44.00;26.50;;;;;;;-143.84;90.14;43904.84;5072894;28;20459;-75
2023/03/19 03:59:53;;;;;;;42.63;24.73;;;;;;;-143.84;90.46;43897.25;5072021;28;20455;-75
2023/03/19 04:02:20;;;;;;;44.00;24.53;;;;;;;-143.84;90.79;43901.06;5072194;28;20522;-75
2023/03/19 04:04:47;;;;;;;46.93;25.67;;;;;;;-143.84;90.98;43925.78;5072268;28;20445;-75
2023/03/19 04:07:15;;;;;;;40.20;24.53;;;;;;;-143.84;91.35;43918.19;5072193;28;20486;-75
2023/03/19 04:20:36;;;;;;;43.80;23.90;;;;;;;-143.84;90.89;43925.78;5071093;28;20439;-75
2023/03/19 04:23:05;;;;;;;42.20;23.53;;;;;;;-143.84;91.29;43916.28;5068291;28;20449;-75
2023/03/19 04:25:32;;;;;;;39.50;22.87;;;;;;;-143.84;91.37;43922.00;5070218;28;20441;-75
2023/03/19 04:28:00;;;;;;;38.13;23.00;;;;;;;-143.84;90.58;43876.31;5070468;28;20437;-75
2023/03/19 04:30:27;;;;;;;44.83;23.33;;;;;;;-143.84;90.75;43882.00;5069227;28;20429;-75
2023/03/19 04:32:55;;;;;;;38.37;22.53;;;;;;;-143.84;90.59;43904.84;5069996;28;20878;-75
2023/03/19 04:35:23;;;;;;;35.57;22.17;;;;;;;-143.84;90.81;43878.22;5070548;28;20441;-75
2023/03/19 04:37:50;;;;;;;40.70;22.33;;;;;;;-143.84;90.38;43923.91;5071066;28;20487;-74
2023/03/19 04:40:19;;;;;;;40.10;23.93;;;;;;;-143.84;90.80;43906.75;5071377;28;20441;-74
2023/03/19 04:42:46;;;;;;;43.30;20.60;;;;;;;-143.84;91.00;43908.66;5071746;28;20935;-75
2023/03/19 04:45:13;;;;;;;38.00;20.67;;;;;;;-143.84;90.78;43906.75;5070922;28;20436;-75
2023/03/19 04:47:41;;;;;;;44.07;23.67;;;;;;;-143.84;90.76;43899.16;5070646;28;20425;-75
2023/03/19 04:50:11;;;;;;;42.23;23.07;;;;;;;-143.84;90.47;43893.44;5071001;28;20433;-75
2023/03/19 04:52:39;;;;;;;38.67;23.17;;;;;;;-143.84;90.74;43920.09;5071309;28;21037;-75
2023/03/19 04:55:08;;;;;;;47.57;25.10;;;;;;;-143.84;90.98;43899.16;5071120;28;20437;-75
2023/03/19 04:57:37;;;;;;;40.83;23.63;;;;;;;-143.84;90.83;43910.56;5071112;28;20441;-75
2023/03/19 05:10:11;;;;;;;43.43;24.37;;;;;;;-143.84;90.96;43889.63;5070485;28;20549;-75
2023/03/19 05:12:39;;;;;;;39.03;23.43;;;;;;;-143.84;90.55;43887.72;5069749;28;21120;-75
2023/03/19 05:15:08;;;;;;;41.20;22.73;;;;;;;-143.84;90.35;43897.25;5070321;28;20494;-75
2023/03/19 05:17:36;;;;;;;48.20;24.40;;;;;;;-143.84;90.34;43880.13;5069902;28;20469;-75
2023/03/19 05:20:04;;;;;;;42.20;22.40;;;;;;;-143.84;90.24;43868.69;5070696;28;20512;-75
2023/03/19 05:22:31;;;;;;;44.30;23.67;;;;;;;-143.84;90.41;43908.66;5070648;28;20488;-75
2023/03/19 05:24:59;;;;;;;35.47;20.10;;;;;;;-143.84;90.09;43874.41;5070845;28;20447;-75
2023/03/19 05:27:26;;;;;;;34.67;21.40;;;;;;;-143.84;89.58;43901.06;5071516;28;20468;-75
2023/03/19 05:29:54;;;;;;;38.37;21.00;;;;;;;-143.84;90.27;43870.59;5071120;28;20490;-75
2023/03/19 05:32:22;;;;;;;31.67;20.83;;;;;;;-143.84;90.07;43859.19;5071268;28;20445;-75
2023/03/19 05:34:49;;;;;;;30.70;19.83;;;;;;;-143.84;89.33;43849.66;5071167;28;20432;-75
2023/03/19 05:37:17;;;;;;;32.47;19.30;;;;;;;-143.84;89.33;43859.19;5074064;28;20450;-74
2023/03/19 05:39:44;;;;;;;28.97;19.00;;;;;;;-143.84;88.79;43845.84;5074661;28;20495;-74
2023/03/19 05:42:11;;;;;;;29.80;18.60;;;;;;;-143.84;88.97;43838.25;5074572;28;21016;-74
2023/03/19 05:44:38;;;;;;;32.10;19.63;;;;;;;-143.84;88.34;43838.25;5074850;28;20809;-74
2023/03/19 05:47:08;;;;;;;31.07;18.57;;;;;;;-143.84;87.86;43838.25;5074235;28;20497;-74
2023/03/19 05:49:35;;;;;;;29.77;18.50;;;;;;;-143.84;87.61;43824.91;5074069;28;20516;-74
2023/03/19 05:52:02;;;;;;;29.37;18.23;;;;;;;-143.84;87.50;43851.56;5072968;28;20432;-74
2023/03/19 05:54:29;;;;;;;25.60;18.10;;;;;;;-143.84;87.59;43805.88;5074318;28;20436;-74
2023/03/19 05:56:56;;;;;;;24.60;16.80;;;;;;;-143.84;87.17;43916.28;5074109;28;20847;-74
2023/03/19 05:59:24;;;;;;;28.90;18.30;;;;;;;-143.84;87.40;43862.97;5071584;28;20440;-75
2023/03/19 06:01:51;;;;;;;29.27;17.53;;;;;;;-143.84;87.87;43838.25;5071477;28;20484;-74
2023/03/19 06:04:19;;;;;;;27.07;17.07;;;;;;;-143.84;87.90;43857.28;5072894;28;20505;-74
2023/03/19 06:06:47;;;;;;;25.10;16.77;;;;;;;-143.84;87.48;43836.34;5074607;28;20428;-75
2023/03/19 06:09:14;;;;;;;25.23;15.83;;;;;;;-143.84;86.99;43899.16;5073914;28;20993;-75
2023/03/19 06:11:41;;;;;;;24.63;16.83;;;;;;;-143.84;86.63;43922.00;5074016;28;21030;-75
2023/03/19 06:14:09;;;;;;;22.60;16.83;;;;;;;-143.84;86.00;43990.53;5074078;28;20444;-76
2023/03/19 06:16:36;;;;;;;24.20;15.13;;;;;;;-143.84;85.97;44112.34;5073989;28;20535;-74
2023/03/19 06:19:03;;;;;;;22.27;15.00;;;;;;;-143.84;85.65;44110.44;5074039;28;20495;-74
2023/03/19 06:21:32;;;;;;;23.37;15.90;;;;;;;-143.84;85.00;44241.81;5074374;28;20475;-74
2023/03/19 06:23:59;;;;;;;21.37;15.73;;;;;;;-143.84;85.57;44199.91;5074365;28;20913;-74
2023/03/19 06:26:27;;;;;;;23.80;15.93;;;;;;;-143.84;84.38;44405.53;5074469;28;20449;-74
2023/03/19 06:28:54;;;;;;;22.80;14.70;;;;;;;-143.84;83.72;44679.69;5073956;28;20946;-74
2023/03/19 06:31:21;;;;;;;22.93;14.03;;;;;;;-143.84;84.09;44654.94;5074243;28;20498;-74
2023/03/19 06:33:49;;;;;;;22.93;14.43;;;;;;;-143.84;84.94;44502.63;5074815;28;20425;-74
2023/03/19 06:36:16;;;;;;;32.77;16.37;;;;;;;-143.84;84.20;44510.22;5074165;28;20798;-75
2023/03/19 06:38:45;;;;;;;22.00;13.50;;;;;;;-143.84;83.87;44706.34;5074057;28;20445;-75
2023/03/19 06:41:13;;;;;;;20.70;14.13;;;;;;;-143.84;83.85;44677.78;5074209;28;20445;-74
2023/03/19 06:43:41;;;;;;;25.93;14.33;;;;;;;-143.84;83.89;44574.97;5074401;28;20441;-75
2023/03/19 06:46:09;;;;;;;19.97;13.13;;;;;;;-143.84;84.15;44580.69;5073405;28;20441;-75
2023/03/19 06:48:37;;;;;;;21.80;14.80;;;;;;;-143.84;84.37;44599.72;5072850;28;20566;-75
2023/03/19 06:51:04;;;;;;;20.40;12.87;;;;;;;-143.84;83.41;44687.28;5074014;28;21001;-75
2023/03/19 06:53:32;;;;;;;26.27;14.10;;;;;;;-143.84;84.00;44630.19;5073908;28;20449;-74
2023/03/19 06:56:00;;;;;;;19.33;12.90;;;;;;;-143.84;83.97;44715.84;5073950;28;20434;-74
2023/03/19 06:58:27;;;;;;;20.13;13.00;;;;;;;-143.84;83.64;44748.22;5074111;28;20440;-74
2023/03/19 07:00:55;;;;;;;18.30;12.43;;;;;;;-143.84;82.80;44797.72;5074025;28;20498;-75
2023/03/19 07:03:22;;;;;;;23.47;13.50;;;;;;;-143.84;82.29;44906.25;5073234;28;20504;-74
2023/03/19 07:05:51;;;;;;;17.67;13.57;;;;;;;-143.84;82.99;44904.34;5073980;28;20930;-74
2023/03/19 07:08:18;;;;;;;16.93;13.20;;;;;;;-143.84;82.04;44889.13;5072895;28;21290;-74
2023/03/19 07:10:45;;;;;;;18.53;12.73;;;;;;;-143.84;81.92;44915.78;5071740;28;20481;-74
2023/03/19 07:13:14;;;;;;;19.23;12.80;;;;;;;-143.84;82.13;44948.16;5073403;28;20879;-74
2023/03/19 07:15:41;;;;;;;15.67;10.80;;;;;;;-143.84;81.09;45085.25;5073535;28;20437;-74
2023/03/19 07:18:08;;;;;;;13.90;11.10;;;;;;;-143.84;81.53;45022.41;5072749;28;20444;-75
2023/03/19 07:20:36;;;;;;;19.17;13.10;;;;;;;-143.84;81.26;44959.56;5073038;28;20440;-78
2023/03/19 07:23:03;;;;;;;17.53;12.17;;;;;;;-143.84;80.93;45035.75;5071169;28;20473;-79
2023/03/19 07:25:30;;;;;;;20.40;12.17;;;;;;;-143.84;81.30;44982.41;5071080;28;20445;-79
2023/03/19 07:27:57;;;;;;;16.80;11.03;;;;;;;-143.84;80.65;45016.69;5070187;28;20500;-78
2023/03/19 07:30:26;;;;;;;18.80;11.90;;;;;;;-143.84;80.76;45014.78;5072990;28;20448;-75
2023/03/19 07:32:53;;;;;;;15.97;11.13;;;;;;;-143.84;80.87;45009.09;5070066;28;20445;-76
2023/03/19 07:35:21;;;;;;;21.63;10.90;;;;;;;-143.84;81.10;45012.88;5071377;28;20433;-76
2023/03/19 07:37:48;;;;;;;17.70;11.67;;;;;;;-143.84;80.59;45047.16;5067062;28;20829;-75
2023/03/19 07:40:15;;;;;;;13.20;10.17;;;;;;;-143.84;80.21;45052.88;5069291;28;21085;-76
2023/03/19 07:42:42;;;;;;;14.63;11.37;;;;;;;-143.84;79.84;45100.47;5069932;28;20547;-75
2023/03/19 07:45:10;;;;;;;22.87;12.17;;;;;;;-143.84;79.76;45064.31;5070075;28;20518;-75
2023/03/19 07:47:39;;;;;;;15.30;11.30;;;;;;;-143.84;79.44;45089.06;5069609;28;20442;-76
2023/03/19 07:50:08;;;;;;;20.60;11.60;;;;;;;-143.84;79.42;45083.34;5070358;28;20469;-76
2023/03/19 07:52:35;;;;;;;17.50;10.80;;;;;;;-143.84;79.42;45090.97;5069797;28;20523;-76
2023/03/19 07:55:02;;;;;;;16.30;10.93;;;;;;;-143.84;78.82;45083.34;5067668;28;20453;-76
2023/03/19 07:57:31;;;;;;;15.90;10.70;;;;;;;-143.84;78.35;45127.13;5069906;28;20970;-78
2023/03/19 07:59:59;;;;;;;14.63;9.73;;;;;;;-143.84;77.85;45115.72;5069882;28;20835;-77
2023/03/19 08:02:26;;;;;;;13.90;9.90;;;;;;;-143.84;77.62;45132.84;5069550;28;20997;-77
2023/03/19 08:04:55;;;;;;;16.67;11.30;;;;;;;-143.84;78.39;45129.03;5070060;28;20434;-77
2023/03/19 08:07:22;;;;;;;19.10;12.00;;;;;;;-143.84;78.51;45094.78;5068158;28;21609;-78
2023/03/19 08:09:49;;;;;;;14.23;10.87;;;;;;;-143.84;78.37;45104.28;5066893;28;20498;-78
2023/03/19 08:12:16;;;;;;;13.53;10.30;;;;;;;-143.84;76.95;45130.94;5068006;28;20468;-77
2023/03/19 08:14:44;;;;;;;19.40;13.23;;;;;;;-143.84;76.58;45123.34;5068521;28;20982;-77
2023/03/19 08:17:11;;;;;;;13.20;10.40;;;;;;;-143.84;75.68;45159.50;5073230;28;20817;-77
2023/03/19 08:19:38;;;;;;;11.70;9.23;;;;;;;-143.84;75.51;45142.38;5073445;28;21160;-78
2023/03/19 08:22:07;;;;;;;14.70;11.97;;;;;;;-143.84;75.37;45155.69;5070192;28;20548;-77
2023/03/19 08:24:34;;;;;;;17.37;13.00;;;;;;;-143.84;75.14;45125.22;5066528;28;20473;-77
2023/03/19 08:27:01;;;;;;;13.93;10.83;;;;;;;-143.84;75.37;45134.75;5067406;28;20912;-78
2023/03/19 08:29:28;;;;;;;13.07;9.97;;;;;;;-143.84;74.24;45144.28;5069640;28;20462;-77
2023/03/19 08:31:57;;;;;;;13.00;9.80;;;;;;;-143.84;74.33;45163.31;5069710;28;20855;-76
2023/03/19 08:34:25;;;;;;;10.97;9.63;;;;;;;-143.84;73.87;45150.00;5068385;28;20479;-76
2023/03/19 08:36:53;;;;;;;13.67;9.50;;;;;;;-143.84;73.73;45161.41;5069268;28;20447;-76
2023/03/19 08:39:22;;;;;;;13.97;11.07;;;;;;;-143.84;73.72;45138.56;5068945;28;20447;-76
2023/03/19 08:41:49;;;;;;;13.90;10.40;;;;;;;-143.84;73.50;45155.69;5069460;28;20446;-77
2023/03/19 08:44:17;;;;;;;13.43;10.17;;;;;;;-143.84;73.78;45142.38;5065426;28;20498;-77
2023/03/19 08:46:44;;;;;;;15.23;10.20;;;;;;;-143.84;74.76;45170.94;5069549;28;20444;-77
2023/03/19 08:49:11;;;;;;;13.93;9.30;;;;;;;-143.84;73.22;45176.66;5069917;28;20448;-77
2023/03/19 08:51:39;;;;;;;13.70;9.43;;;;;;;-143.84;73.06;45136.66;5070434;28;20492;-77
2023/03/19 08:54:06;;;;;;;13.50;10.73;;;;;;;-143.84;73.80;45159.50;5069781;28;20452;-77
2023/03/19 08:56:35;;;;;;;12.07;9.83;;;;;;;-143.84;73.21;45155.69;5070447;28;20933;-75
2023/03/19 08:59:02;;;;;;;16.07;10.17;;;;;;;-143.84;72.36;45146.19;5070669;28;20444;-77
2023/03/19 09:01:30;;;;;;;11.97;9.03;;;;;;;-143.84;72.81;45169.03;5069894;28;20646;-76
2023/03/19 09:03:57;;;;;;;13.80;8.90;;;;;;;-143.84;72.71;45178.56;5069581;28;20503;-75
2023/03/19 09:06:24;;;;;;;14.80;9.00;;;;;;;-143.84;69.83;45184.25;5069941;28;20440;-77
2023/03/19 09:08:51;;;;;;;13.30;9.33;;;;;;;-143.84;70.59;45165.22;5069337;28;20495;-76
2023/03/19 09:11:18;;;;;;;15.43;9.07;;;;;;;-143.84;71.03;45165.22;5068753;28;20452;-78
2023/03/19 09:13:47;;;;;;;10.20;8.83;;;;;;;-143.84;70.78;45132.84;5072305;28;20444;-76
2023/03/19 09:16:14;;;;;;;12.63;10.30;;;;;;;-143.84;71.14;45129.03;5068920;28;20869;-76
2023/03/19 09:18:41;;;;;;;14.17;9.83;;;;;;;-143.84;71.20;45184.25;5069625;28;20830;-79
2023/03/19 09:21:09;;;;;;;14.13;9.50;;;;;;;-143.84;71.55;45165.22;5071415;28;20828;-76
2023/03/19 09:23:36;;;;;;;11.30;9.50;;;;;;;-143.84;71.37;45151.91;5071602;28;20484;-75
2023/03/19 09:26:03;;;;;;;12.30;9.67;;;;;;;-143.84;71.43;45153.81;5071364;28;20499;-76
2023/03/19 09:28:31;;;;;;;17.33;10.77;;;;;;;-143.84;70.92;45142.38;5070945;28;20440;-76
2023/03/19 09:31:05;;;;;;;12.10;9.43;;;;;;;-143.84;71.34;45169.03;5069703;28;20878;-76
2023/03/19 09:33:33;;;;;;;13.10;9.73;;;;;;;-143.84;71.91;45150.00;5066019;28;20461;-76
2023/03/19 09:36:00;;;;;;;12.87;11.50;;;;;;;-143.84;70.91;45148.09;5067185;28;20452;-76
2023/03/19 09:38:28;;;;;;;13.33;9.70;;;;;;;-143.84;70.65;45157.59;5069523;28;20441;-75
2023/03/19 09:41:07;;;;;;;13.80;10.60;;;;;;;-143.84;71.04;45123.34;5069429;28;20456;-77
2023/03/19 09:43:52;;;;;;;11.57;9.57;;;;;;;-143.84;71.03;45153.81;5069135;28;20479;-77
2023/03/19 09:46:26;;;;;;;12.40;10.20;;;;;;;-143.84;69.52;45159.50;5068424;28;20468;-77
2023/03/19 09:48:58;;;;;;;11.60;9.37;;;;;;;-143.84;69.40;45142.38;5066813;28;20451;-76
2023/03/19 09:51:34;;;;;;;13.00;9.53;;;;;;;-143.84;68.97;45180.47;5067747;28;20466;-75
2023/03/19 09:54:04;;;;;;;11.97;8.63;;;;;;;-143.84;67.96;45165.22;5066285;28;20520;-74
2023/03/19 09:56:32;;;;;;;10.77;9.17;;;;;;;-143.84;68.45;45172.84;5067953;28;20436;-75
2023/03/19 09:59:00;;;;;;;10.60;8.20;;;;;;;-143.84;67.13;45155.69;5067671;28;20502;-74
2023/03/19 10:01:34;;;;;;;12.43;10.00;;;;;;;-143.84;68.31;45155.69;5064721;28;21098;-73
2023/03/19 10:04:19;;;;;;;11.83;9.20;;;;;;;-143.84;68.77;45169.03;5064184;28;20494;-73
2023/03/19 10:06:47;;;;;;;14.10;9.67;;;;;;;-143.84;69.17;45153.81;5065419;28;20509;-75
2023/03/19 10:09:39;;;;;;;13.63;9.10;;;;;;;-143.84;69.69;45146.19;5065775;28;20504;-73
2023/03/19 10:12:20;;;;;;;11.87;9.10;;;;;;;-143.84;68.80;45174.75;5066434;28;20479;-74
2023/03/19 10:15:04;;;;;;;11.83;9.50;;;;;;;-143.84;68.43;45169.03;5068688;28;21533;-74
2023/03/19 10:17:38;;;;;;;10.83;9.23;;;;;;;-143.84;67.77;45163.31;5066433;28;20820;-74
2023/03/19 10:20:10;;;;;;;14.93;9.10;;;;;;;-143.84;67.61;45176.66;5065068;28;20452;-75
2023/03/19 10:22:43;;;;;;;8.83;7.93;;;;;;;-143.84;67.24;45151.91;5067533;28;20441;-77
2023/03/19 10:25:16;;;;;;;11.33;10.00;;;;;;;-143.84;67.04;45174.75;5068666;28;20441;-77
2023/03/19 10:27:46;;;;;;;11.43;9.77;;;;;;;-143.84;66.81;45169.03;5070588;28;21536;-77
2023/03/19 10:30:15;;;;;;;12.47;9.50;;;;;;;-143.84;66.90;45140.47;5070983;28;21025;-76
2023/03/19 10:32:48;;;;;;;11.13;9.33;;;;;;;-143.84;67.87;45144.28;5070583;28;20939;-75
2023/03/19 10:35:20;;;;;;;10.03;8.83;;;;;;;-143.84;66.79;45130.94;5073056;28;20448;-74
2023/03/19 10:37:48;;;;;;;14.10;9.17;;;;;;;-143.84;65.99;45159.50;5071798;28;21135;-74
2023/03/19 10:40:22;;;;;;;10.13;9.07;;;;;;;-143.84;66.54;45163.31;5071961;28;20536;-73
2023/03/19 10:43:07;;;;;;;12.87;9.33;;;;;;;-143.84;64.88;45151.91;5069914;28;20539;-75
2023/03/19 10:45:35;;;;;;;13.03;9.87;;;;;;;-143.84;65.59;45167.13;5070593;28;20565;-76
2023/03/19 10:48:05;;;;;;;11.10;9.40;;;;;;;-143.84;66.78;45148.09;5070997;28;20445;-75
2023/03/19 10:50:37;;;;;;;14.00;9.80;;;;;;;-143.84;66.96;45159.50;5070836;28;20442;-74
2023/03/19 10:53:07;;;;;;;13.33;10.23;;;;;;;-143.84;66.11;45169.03;5073037;28;20447;-74
2023/03/19 10:55:35;;;;;;;13.73;9.70;;;;;;;-143.84;66.81;45159.50;5073069;28;20512;-74
2023/03/19 10:58:05;;;;;;;16.50;10.43;;;;;;;-143.84;65.59;45161.41;5071918;28;20568;-74
2023/03/19 11:00:34;;;;;;;11.20;8.80;;;;;;;-143.84;64.40;45153.81;5072149;28;20450;-74
2023/03/19 11:03:04;;;;;;;12.60;9.00;;;;;;;-143.84;65.37;45151.91;5072440;28;20484;-75
2023/03/19 11:05:33;;;;;;;12.03;9.17;;;;;;;-143.84;66.53;45155.69;5072315;28;20482;-75
2023/03/19 11:08:02;;;;;;;12.10;8.70;;;;;;;-143.84;66.25;45155.69;5069326;28;20452;-74
2023/03/19 11:10:31;;;;;;;16.63;9.50;;;;;;;-143.84;65.08;45176.66;5071080;28;20902;-76
2023/03/19 11:13:00;;;;;;;9.47;8.30;;;;;;;-143.84;65.31;45155.69;5072001;28;20438;-77
2023/03/19 11:15:34;;;;;;;11.07;9.10;;;;;;;-143.84;66.04;45148.09;5069716;28;20437;-77
2023/03/19 11:18:08;;;;;;;11.63;9.87;;;;;;;-143.84;65.51;45169.03;5072203;28;20523;-76
2023/03/19 11:20:37;;;;;;;13.73;10.10;;;;;;;-143.84;65.19;45163.31;5071846;28;20454;-75
2023/03/19 11:23:11;;;;;;;14.37;10.00;;;;;;;-143.84;65.36;45167.13;5072126;28;20488;-75
2023/03/19 11:25:40;;;;;;;12.67;10.23;;;;;;;-143.84;65.58;45144.28;5070402;28;21004;-75
2023/03/19 11:28:10;;;;;;;13.97;10.43;;;;;;;-143.84;66.92;45146.19;5072981;28;20441;-77
2023/03/19 11:30:46;;;;;;;11.73;9.20;;;;;;;-143.84;66.47;45140.47;5071972;28;20453;-78